createdAt,value
2019-05-18T00:01:07.207Z,68.09
2019-05-18T00:03:37.914Z,68.85
2019-05-18T00:06:08.752Z,67.71
2019-05-18T00:08:39.522Z,68.49
2019-05-18T00:11:09.996Z,68.02
2019-05-18T00:13:40.597Z,68.25
2019-05-18T00:16:11.215Z,67.79
2019-05-18T00:18:41.892Z,67.69
2019-05-18T00:21:12.984Z,69.14
2019-05-18T00:23:43.784Z,69.11
2019-05-18T00:26:14.657Z,69.17
2019-05-18T00:28:45.463Z,69.11
2019-05-18T00:31:16.389Z,69.34
2019-05-18T00:33:47.295Z,68.97
2019-05-18T00:36:19.099Z,68.47
2019-05-18T00:38:50.111Z,69.16
2019-05-18T00:41:20.834Z,69.37
2019-05-18T00:43:51.625Z,70.00
2019-05-18T00:46:22.578Z,70.73
2019-05-18T00:48:53.408Z,69.91
2019-05-18T00:51:24.177Z,70.61
2019-05-18T00:53:55.013Z,70.20
2019-05-18T00:56:25.967Z,70.87
2019-05-18T00:58:56.689Z,70.04
2019-05-18T01:01:27.365Z,69.40
2019-05-18T01:03:58.413Z,69.60
2019-05-18T01:06:29.228Z,69.02
2019-05-18T01:09:00.075Z,69.46
2019-05-18T01:11:30.774Z,68.97
2019-05-18T01:14:01.692Z,69.17
2019-05-18T01:16:32.647Z,69.35
2019-05-18T01:19:03.494Z,69.05
2019-05-18T01:21:34.145Z,69.11
2019-05-18T01:24:04.844Z,69.71
2019-05-18T01:26:35.317Z,69.23
2019-05-18T01:29:06.785Z,69.91
2019-05-18T01:31:37.388Z,69.86
2019-05-18T01:34:07.894Z,68.98
2019-05-18T01:36:38.429Z,69.42
2019-05-18T01:39:09.231Z,69.56
2019-05-18T01:41:39.831Z,70.33
2019-05-18T01:44:10.812Z,69.59
2019-05-18T01:46:41.587Z,71.23
2019-05-18T01:49:13.281Z,71.65
2019-05-18T01:51:43.950Z,71.75
2019-05-18T01:54:14.811Z,71.97
2019-05-18T01:56:45.628Z,71.71
2019-05-18T01:59:16.492Z,71.62
2019-05-18T02:01:47.257Z,71.83
2019-05-18T02:04:18.068Z,71.75
2019-05-18T02:06:48.991Z,71.93
2019-05-18T02:09:19.856Z,70.88
2019-05-18T02:11:50.673Z,70.82
2019-05-18T02:14:21.648Z,71.01
2019-05-18T02:16:52.336Z,70.75
2019-05-18T02:19:24.830Z,70.64
2019-05-18T02:21:55.631Z,69.79
2019-05-18T02:24:26.379Z,69.68
2019-05-18T02:26:56.989Z,71.04
2019-05-18T02:29:27.780Z,71.33
2019-05-18T02:31:58.548Z,72.28
2019-05-18T02:34:29.331Z,71.60
2019-05-18T02:37:00.087Z,71.22
2019-05-18T02:39:30.798Z,72.52
2019-05-18T02:42:01.845Z,71.51
2019-05-18T02:44:32.495Z,72.05
2019-05-18T02:47:03.233Z,72.26
2019-05-18T02:49:34.133Z,71.77
2019-05-18T02:52:04.933Z,71.04
2019-05-18T02:54:35.694Z,72.04
2019-05-18T02:57:06.305Z,70.51
2019-05-18T02:59:37.077Z,70.73
2019-05-18T03:02:07.549Z,71.52
2019-05-18T03:04:38.177Z,71.08
2019-05-18T03:07:08.660Z,71.04
2019-05-18T03:09:39.166Z,70.66
2019-05-18T03:12:09.665Z,72.11
2019-05-18T03:14:40.138Z,72.30
2019-05-18T03:17:10.781Z,72.14
2019-05-18T03:19:41.265Z,72.70
2019-05-18T03:22:11.757Z,73.90
2019-05-18T03:24:42.305Z,73.39
2019-05-18T03:27:12.821Z,72.99
2019-05-18T03:29:43.443Z,71.82
2019-05-18T03:32:13.965Z,72.94
2019-05-18T03:34:44.464Z,72.59
2019-05-18T03:37:14.950Z,72.82
2019-05-18T03:39:45.586Z,71.90
2019-05-18T03:42:16.141Z,72.42
2019-05-18T03:44:46.641Z,73.83
2019-05-18T03:47:17.392Z,74.16
2019-05-18T03:49:48.285Z,74.53
2019-05-18T03:52:18.963Z,74.95
2019-05-18T03:54:49.694Z,74.25
2019-05-18T03:57:20.467Z,74.53
2019-05-18T03:59:51.242Z,73.70
2019-05-18T04:02:22.087Z,73.94
2019-05-18T04:04:52.746Z,74.88
2019-05-18T04:07:23.642Z,74.95
2019-05-18T04:09:54.440Z,74.20
2019-05-18T04:12:25.300Z,75.50
2019-05-18T04:14:56.388Z,75.39
2019-05-18T04:17:27.228Z,74.58
2019-05-18T04:19:57.997Z,74.06
2019-05-18T04:22:28.794Z,73.36
2019-05-18T04:24:59.610Z,72.77
2019-05-18T04:27:30.294Z,73.26
2019-05-18T04:30:01.169Z,73.19
2019-05-18T04:32:31.969Z,73.69
2019-05-18T04:35:03.166Z,72.74
2019-05-18T04:37:33.909Z,71.75
2019-05-18T04:40:06.292Z,71.36
2019-05-18T04:42:37.130Z,71.09
2019-05-18T04:45:09.482Z,72.34
2019-05-18T04:47:40.235Z,72.26
2019-05-18T04:50:11.437Z,73.58
2019-05-18T04:52:42.294Z,72.35
2019-05-18T04:55:13.241Z,71.92
2019-05-18T04:57:43.971Z,71.94
2019-05-18T05:00:15.226Z,72.31
2019-05-18T05:02:46.294Z,71.06
2019-05-18T05:05:16.947Z,71.44
2019-05-18T05:07:47.843Z,71.72
2019-05-18T05:10:18.818Z,71.21
2019-05-18T05:12:49.858Z,70.93
2019-05-18T05:15:20.648Z,70.96
2019-05-18T05:17:51.444Z,71.40
2019-05-18T05:20:23.254Z,71.03
2019-05-18T05:22:53.899Z,71.01
2019-05-18T05:25:24.376Z,71.20
2019-05-18T05:27:54.881Z,71.00
2019-05-18T05:30:25.396Z,69.98
2019-05-18T05:32:56.017Z,70.26
2019-05-18T05:35:26.521Z,70.36
2019-05-18T05:37:57.156Z,70.04
2019-05-18T05:40:27.776Z,70.02
2019-05-18T05:42:58.282Z,69.94
2019-05-18T05:45:28.787Z,70.60
2019-05-18T05:47:59.326Z,70.30
2019-05-18T05:50:36.047Z,70.09
2019-05-18T05:53:02.117Z,68.26
2019-05-18T05:55:32.980Z,69.43
2019-05-18T05:58:04.905Z,69.00
2019-05-18T06:00:35.773Z,69.02
2019-05-18T06:03:06.551Z,69.34
2019-05-18T06:05:37.228Z,68.90
2019-05-18T06:08:07.850Z,69.82
2019-05-18T06:10:38.586Z,69.43
2019-05-18T06:13:09.333Z,68.93
2019-05-18T06:15:40.081Z,68.12
2019-05-18T06:18:10.949Z,67.66
2019-05-18T06:20:51.093Z,67.82
2019-05-18T06:23:14.596Z,67.45
2019-05-18T06:25:45.329Z,66.49
2019-05-18T06:28:16.171Z,66.17
2019-05-18T06:30:46.942Z,65.33
2019-05-18T06:33:17.844Z,65.39
2019-05-18T06:35:48.632Z,65.19
2019-05-18T06:38:19.468Z,64.64
2019-05-18T06:40:50.372Z,64.90
2019-05-18T06:43:21.273Z,63.98
2019-05-18T06:45:51.990Z,63.52
2019-05-18T06:48:22.696Z,62.59
2019-05-18T06:51:06.383Z,62.35
2019-05-18T06:53:26.116Z,62.11
2019-05-18T06:55:57.374Z,62.53
2019-05-18T06:58:28.467Z,62.68
2019-05-18T07:00:59.310Z,62.40
2019-05-18T07:03:30.497Z,62.97
2019-05-18T07:06:01.383Z,62.30
2019-05-18T07:08:32.119Z,62.13
2019-05-18T07:11:02.928Z,62.59
2019-05-18T07:13:33.573Z,62.20
2019-05-18T07:16:04.417Z,62.08
2019-05-18T07:18:35.324Z,62.24
2019-05-18T07:21:06.034Z,62.25
2019-05-18T07:23:36.817Z,61.42
2019-05-18T07:26:08.611Z,60.96
2019-05-18T07:28:39.447Z,61.82
2019-05-18T07:31:10.290Z,61.08
2019-05-18T07:33:41.163Z,61.25
2019-05-18T07:36:11.942Z,60.85
2019-05-18T07:38:42.737Z,60.23
2019-05-18T07:41:13.817Z,58.95
2019-05-18T07:43:44.636Z,59.15
2019-05-18T07:46:15.224Z,58.79
2019-05-18T07:48:45.704Z,58.70
2019-05-18T07:51:16.239Z,58.74
2019-05-18T07:53:46.712Z,58.78
2019-05-18T07:56:17.226Z,58.54
2019-05-18T07:58:47.696Z,58.51
2019-05-18T08:01:18.437Z,59.34
2019-05-18T08:03:49.147Z,57.97
2019-05-18T08:06:19.951Z,58.09
2019-05-18T08:08:50.645Z,57.74
2019-05-18T08:11:21.190Z,57.47
2019-05-18T08:13:51.942Z,56.88
2019-05-18T08:16:22.651Z,55.64
2019-05-18T08:18:53.599Z,55.60
2019-05-18T08:21:24.082Z,57.25
2019-05-18T08:23:55.496Z,55.87
2019-05-18T08:26:25.985Z,55.71
2019-05-18T08:28:56.584Z,55.34
2019-05-18T08:31:27.057Z,55.74
2019-05-18T08:33:57.830Z,55.10
2019-05-18T08:36:28.612Z,55.46
2019-05-18T08:38:59.386Z,54.74
2019-05-18T08:41:31.209Z,53.78
2019-05-18T08:44:02.205Z,53.36
2019-05-18T08:46:32.879Z,54.67
2019-05-18T08:49:03.758Z,54.96
2019-05-18T08:51:34.523Z,54.29
2019-05-18T08:54:05.435Z,53.50
2019-05-18T08:56:36.204Z,53.38
2019-05-18T08:59:07.062Z,52.94
2019-05-18T09:01:37.668Z,52.96
2019-05-18T09:04:08.754Z,51.83
2019-05-18T09:06:39.573Z,53.21
2019-05-18T09:09:10.243Z,53.26
2019-05-18T09:11:41.176Z,53.23
2019-05-18T09:14:11.981Z,53.36
2019-05-18T09:16:43.193Z,53.45
2019-05-18T09:19:14.016Z,52.17
2019-05-18T09:21:44.906Z,52.15
2019-05-18T09:24:16.982Z,52.26
2019-05-18T09:26:47.772Z,51.51
2019-05-18T09:29:18.711Z,52.43
2019-05-18T09:31:49.574Z,51.65
2019-05-18T09:34:20.453Z,51.14
2019-05-18T09:36:51.392Z,51.93
2019-05-18T09:39:22.200Z,51.45
2019-05-18T09:41:52.931Z,51.77
2019-05-18T09:44:23.692Z,51.81
2019-05-18T09:46:54.605Z,50.94
2019-05-18T09:49:25.394Z,50.88
2019-05-18T09:51:55.861Z,52.09
2019-05-18T09:54:26.400Z,51.62
2019-05-18T09:56:56.879Z,51.32
2019-05-18T09:59:27.340Z,51.44
2019-05-18T10:01:57.944Z,51.44
2019-05-18T10:04:28.814Z,50.50
2019-05-18T10:07:00.718Z,50.19
2019-05-18T10:09:38.887Z,50.72
2019-05-18T10:12:04.091Z,50.82
2019-05-18T10:14:34.889Z,49.98
2019-05-18T10:17:05.784Z,50.48
2019-05-18T10:19:36.488Z,50.13
2019-05-18T10:22:24.953Z,50.78
2019-05-18T10:24:55.787Z,49.63
2019-05-18T10:27:26.641Z,49.17
2019-05-18T10:29:57.377Z,48.37
2019-05-18T10:32:28.274Z,49.38
2019-05-18T10:34:59.145Z,50.16
2019-05-18T10:37:30.150Z,49.62
2019-05-18T10:40:01.015Z,49.37
2019-05-18T10:42:31.997Z,49.99
2019-05-18T10:45:02.916Z,48.66
2019-05-18T10:47:33.674Z,48.85
2019-05-18T10:50:04.693Z,48.51
2019-05-18T10:52:35.551Z,48.58
2019-05-18T10:55:06.832Z,49.05
2019-05-18T10:57:37.734Z,47.42
2019-05-18T11:00:09.567Z,47.73
2019-05-18T11:02:40.880Z,47.70
2019-05-18T11:05:13.348Z,47.77
2019-05-18T11:07:44.464Z,46.90
2019-05-18T11:10:15.821Z,47.23
2019-05-18T11:12:46.700Z,48.07
2019-05-18T11:15:17.928Z,47.16
2019-05-18T11:17:48.768Z,45.68
2019-05-18T11:20:20.172Z,46.47
2019-05-18T11:22:50.972Z,47.68
2019-05-18T11:25:22.096Z,46.75
2019-05-18T11:27:52.980Z,47.04
2019-05-18T11:30:23.892Z,47.01
2019-05-18T11:32:54.930Z,46.05
2019-05-18T11:35:26.213Z,47.02
2019-05-18T11:37:57.067Z,47.48
2019-05-18T11:40:27.730Z,46.92
2019-05-18T11:42:58.311Z,46.77
2019-05-18T11:45:30.611Z,46.63
2019-05-18T11:48:01.780Z,46.16
2019-05-18T11:50:32.330Z,46.20
2019-05-18T11:53:02.951Z,45.45
2019-05-18T11:55:33.500Z,45.87
2019-05-18T11:58:04.464Z,45.12
2019-05-18T12:00:35.523Z,46.87
2019-05-18T12:03:06.505Z,47.54
2019-05-18T12:05:37.392Z,46.24
2019-05-18T12:08:08.372Z,46.90
2019-05-18T12:10:39.261Z,46.07
2019-05-18T12:13:10.145Z,46.41
2019-05-18T12:15:41.202Z,45.04
2019-05-18T12:18:12.137Z,43.47
2019-05-18T12:20:43.127Z,45.28
2019-05-18T12:23:13.909Z,43.64
2019-05-18T12:25:44.733Z,44.38
2019-05-18T12:28:15.947Z,44.88
2019-05-18T12:30:46.724Z,43.30
2019-05-18T12:33:17.703Z,43.30
2019-05-18T12:35:48.407Z,43.99
2019-05-18T12:38:19.271Z,42.53
2019-05-18T12:40:50.158Z,45.02
2019-05-18T12:43:22.049Z,46.05
2019-05-18T12:45:52.953Z,45.57
2019-05-18T12:48:23.840Z,43.89
2019-05-18T12:50:54.878Z,43.87
2019-05-18T12:53:25.690Z,44.33
2019-05-18T12:55:56.619Z,42.70
2019-05-18T12:58:27.591Z,43.41
2019-05-18T13:00:58.434Z,42.22
2019-05-18T13:03:29.216Z,43.52
2019-05-18T13:06:00.231Z,43.44
2019-05-18T13:08:31.119Z,42.34
2019-05-18T13:11:02.105Z,42.11
2019-05-18T13:13:33.222Z,41.17
2019-05-18T13:16:04.139Z,41.78
2019-05-18T13:18:35.059Z,41.70
2019-05-18T13:21:06.040Z,42.55
2019-05-18T13:23:36.903Z,42.46
2019-05-18T13:26:07.784Z,45.57
2019-05-18T13:28:38.649Z,47.20
2019-05-18T13:31:09.356Z,46.94
2019-05-18T13:33:40.119Z,45.27
2019-05-18T13:36:10.724Z,43.78
2019-05-18T13:38:41.343Z,44.55
2019-05-18T13:41:12.096Z,46.12
2019-05-18T13:43:42.655Z,50.98
2019-05-18T13:46:13.251Z,54.01
2019-05-18T13:48:44.018Z,54.92
2019-05-18T13:58:48.294Z,55.69
2019-05-18T14:01:18.819Z,54.40
2019-05-18T14:03:49.286Z,54.09
2019-05-18T14:06:20.048Z,53.93
2019-05-18T14:08:50.756Z,53.52
2019-05-18T14:11:21.617Z,54.59
2019-05-18T14:13:52.443Z,54.72
2019-05-18T14:16:23.401Z,53.87
2019-05-18T14:18:54.193Z,54.52
2019-05-18T14:21:25.064Z,55.10
2019-05-18T14:23:55.736Z,54.39
2019-05-18T14:26:26.473Z,54.75
2019-05-18T14:28:57.040Z,54.76
2019-05-18T14:31:27.842Z,56.79
2019-05-18T14:33:58.593Z,54.93
2019-05-18T14:36:29.462Z,55.28
2019-05-18T14:39:00.178Z,54.41
2019-05-18T14:41:32.711Z,55.74
2019-05-18T14:44:03.487Z,54.20
2019-05-18T14:46:34.255Z,53.85
2019-05-18T14:49:05.113Z,51.80
2019-05-18T14:51:35.912Z,53.52
2019-05-18T14:54:06.789Z,52.56
2019-05-18T14:56:37.433Z,52.09
2019-05-18T14:59:09.144Z,52.23
2019-05-18T15:01:39.816Z,52.50
2019-05-18T15:04:10.807Z,50.98
2019-05-18T15:06:41.690Z,50.90
2019-05-18T15:09:12.496Z,51.66
2019-05-18T15:11:43.292Z,50.69
2019-05-18T15:14:14.125Z,48.54
2019-05-18T15:16:44.922Z,49.68
2019-05-18T15:19:15.809Z,48.05
2019-05-18T15:21:46.324Z,49.32
2019-05-18T15:24:16.807Z,49.07
2019-05-18T15:26:47.346Z,49.19
2019-05-18T15:29:17.818Z,49.22
2019-05-18T15:31:48.580Z,48.88
2019-05-18T15:34:19.398Z,48.10
2019-05-18T15:36:50.229Z,48.65
2019-05-18T15:39:21.092Z,49.47
2019-05-18T15:41:52.008Z,49.27
2019-05-18T15:44:22.805Z,49.72
2019-05-18T15:46:53.473Z,48.68
2019-05-18T15:49:24.515Z,49.33
2019-05-18T15:51:55.378Z,49.28
2019-05-18T15:54:26.325Z,48.91
2019-05-18T15:56:57.116Z,50.52
2019-05-18T15:59:28.006Z,50.81
2019-05-18T16:01:58.856Z,51.07
2019-05-18T16:04:29.810Z,50.18
2019-05-18T16:07:00.633Z,49.93
2019-05-18T16:09:31.410Z,49.82
2019-05-18T16:12:02.338Z,49.45
2019-05-18T16:14:33.180Z,48.72
2019-05-18T16:17:04.116Z,49.44
2019-05-18T16:19:34.975Z,49.69
2019-05-18T16:22:05.760Z,50.21
2019-05-18T16:24:36.457Z,49.85
2019-05-18T16:27:07.225Z,51.23
2019-05-18T16:29:37.916Z,51.66
2019-05-18T16:32:08.788Z,51.72
2019-05-18T16:34:39.559Z,51.13
2019-05-18T16:37:10.517Z,50.88
2019-05-18T16:39:41.408Z,51.72
2019-05-18T16:42:12.331Z,49.40
2019-05-18T16:44:43.013Z,50.12
2019-05-18T16:47:13.843Z,53.26
2019-05-18T16:49:44.577Z,51.26
2019-05-18T16:52:15.382Z,52.91
2019-05-18T16:54:46.179Z,52.98
2019-05-18T16:57:17.012Z,52.83
2019-05-18T16:59:47.687Z,52.33
2019-05-18T17:02:31.218Z,52.20
2019-05-18T17:04:50.741Z,50.90
2019-05-18T17:07:21.221Z,52.01
2019-05-18T17:09:51.788Z,51.45
2019-05-18T17:12:22.397Z,51.58
2019-05-18T17:14:52.872Z,52.22
2019-05-18T17:17:24.019Z,51.23
2019-05-18T17:19:54.518Z,52.53
2019-05-18T17:22:25.256Z,52.91
2019-05-18T17:24:56.504Z,52.37
2019-05-18T17:27:27.299Z,52.32
2019-05-18T17:29:58.283Z,52.56
2019-05-18T17:32:29.017Z,51.60
2019-05-18T17:35:02.354Z,51.25
2019-05-18T17:37:33.285Z,51.96
2019-05-18T17:44:58.207Z,53.21
2019-05-18T17:47:29.646Z,54.58
2019-05-18T17:50:00.463Z,54.98
2019-05-18T17:52:31.248Z,55.12
2019-05-18T17:55:02.116Z,53.05
2019-05-18T17:57:32.957Z,54.40
2019-05-18T18:00:04.257Z,54.04
2019-05-18T18:02:35.958Z,53.54
2019-05-18T18:05:07.405Z,53.67
2019-05-18T18:07:38.323Z,53.77
2019-05-18T18:10:09.787Z,53.92
2019-05-18T18:12:40.553Z,55.29
2019-05-18T18:15:11.641Z,55.01
2019-05-18T18:17:42.534Z,54.59
2019-05-18T18:20:13.558Z,55.88
2019-05-18T18:22:44.220Z,55.58
2019-05-18T18:25:14.997Z,56.22
2019-05-18T18:27:45.973Z,57.29
2019-05-18T18:30:17.471Z,58.29
2019-05-18T18:32:48.118Z,58.65
2019-05-18T18:35:19.022Z,59.25
2019-05-18T18:37:49.895Z,60.16
2019-05-18T18:40:20.724Z,61.29
2019-05-18T18:42:51.593Z,61.20
2019-05-18T18:45:22.177Z,61.56
2019-05-18T18:47:53.872Z,62.19
2019-05-18T18:50:24.420Z,62.97
2019-05-18T18:52:54.937Z,62.43
2019-05-18T18:55:25.443Z,63.26
2019-05-18T18:57:55.909Z,64.16
2019-05-18T19:00:26.437Z,63.61
2019-05-18T19:02:56.926Z,64.25
2019-05-18T19:05:28.928Z,65.06
2019-05-18T19:07:59.859Z,66.50
2019-05-18T19:10:30.626Z,67.29
2019-05-18T19:13:01.325Z,66.21
2019-05-18T19:17:00.415Z,66.21
2019-05-18T19:18:43.419Z,67.03
2019-05-18T19:21:14.192Z,66.81
2019-05-18T19:23:44.985Z,65.71
2019-05-18T19:26:16.813Z,67.83
2019-05-18T19:28:47.673Z,68.55
2019-05-18T19:31:18.537Z,68.52
2019-05-18T19:33:49.264Z,69.08
2019-05-18T19:36:21.545Z,70.80
2019-05-18T19:38:52.280Z,70.61
2019-05-18T19:41:23.071Z,71.03
2019-05-18T19:43:53.929Z,72.87
2019-05-18T19:46:24.753Z,72.22
2019-05-18T19:48:55.488Z,73.32
2019-05-18T19:51:26.377Z,73.56
2019-05-18T19:53:57.165Z,74.17
2019-05-18T19:56:27.859Z,72.96
2019-05-18T19:58:58.632Z,74.34
2019-05-18T20:01:30.356Z,74.44
2019-05-18T20:04:01.125Z,74.16
2019-05-18T20:06:32.196Z,74.26
2019-05-18T20:09:05.224Z,74.21
2019-05-18T20:11:36.941Z,73.33
2019-05-18T20:14:07.697Z,72.95
2019-05-18T20:16:38.568Z,72.61
2019-05-18T20:19:09.480Z,72.43
2019-05-18T20:21:41.898Z,72.99
2019-05-18T20:24:12.672Z,73.11
2019-05-18T20:26:43.507Z,73.67
2019-05-18T20:29:14.345Z,73.83
2019-05-18T20:31:45.199Z,73.43
2019-05-18T20:34:15.913Z,72.84
2019-05-18T20:36:46.810Z,72.87
2019-05-18T20:39:17.529Z,73.19
2019-05-18T20:41:48.140Z,72.99
2019-05-18T20:44:18.714Z,73.13
2019-05-18T20:46:49.307Z,72.87
2019-05-18T20:49:19.779Z,73.24
2019-05-18T20:51:50.670Z,72.80
2019-05-18T20:54:21.285Z,72.61
2019-05-18T20:56:51.864Z,72.57
2019-05-18T20:59:22.481Z,72.30
2019-05-18T21:01:53.561Z,72.04
2019-05-18T21:04:24.309Z,72.28
2019-05-18T21:06:55.354Z,71.83
2019-05-18T21:09:26.195Z,72.54
2019-05-18T21:11:57.012Z,72.66
2019-05-18T21:14:27.790Z,72.70
2019-05-18T21:16:58.662Z,72.70
2019-05-18T21:19:29.483Z,74.12
2019-05-18T21:22:00.424Z,73.46
2019-05-18T21:24:31.141Z,73.79
2019-05-18T21:27:02.644Z,72.78
2019-05-18T21:29:33.412Z,73.14
2019-05-18T21:32:05.142Z,73.92
2019-05-18T21:34:36.080Z,73.10
2019-05-18T21:37:06.964Z,72.38
2019-05-18T21:39:37.719Z,73.07
2019-05-18T21:42:08.598Z,73.10
2019-05-18T21:44:39.381Z,73.50
2019-05-18T21:47:10.086Z,73.55
2019-05-18T21:49:41.006Z,73.88
2019-05-18T21:52:11.740Z,75.50
2019-05-18T21:54:42.596Z,75.58
2019-05-18T21:57:13.520Z,75.79
2019-05-18T21:59:44.199Z,75.87
2019-05-18T22:02:15.178Z,75.46
2019-05-18T22:04:45.919Z,75.40
2019-05-18T22:07:16.818Z,75.74
2019-05-18T22:09:47.548Z,75.50
2019-05-18T22:12:18.375Z,75.45
2019-05-18T22:14:49.155Z,75.45
2019-05-18T22:17:19.991Z,75.51
2019-05-18T22:19:50.865Z,75.48
2019-05-18T22:22:21.353Z,75.63
2019-05-18T22:24:51.876Z,75.69
2019-05-18T22:27:22.372Z,75.00
2019-05-18T22:29:52.990Z,74.65
2019-05-18T22:32:23.463Z,74.48
2019-05-18T22:34:53.996Z,74.58
2019-05-18T22:37:24.507Z,74.45
2019-05-18T22:39:55.043Z,74.59
2019-05-18T22:42:26.964Z,74.51
2019-05-18T22:44:57.760Z,74.71
2019-05-18T22:47:28.637Z,74.78
2019-05-18T22:49:59.423Z,74.69
2019-05-18T22:52:30.316Z,75.21
2019-05-18T22:55:01.094Z,75.23
2019-05-18T22:57:32.071Z,75.53
2019-05-18T23:00:02.939Z,75.43
2019-05-18T23:02:35.451Z,75.64
2019-05-18T23:05:06.463Z,75.51
2019-05-18T23:07:37.354Z,75.93
2019-05-18T23:10:08.366Z,75.45
2019-05-18T23:12:39.145Z,75.40
2019-05-18T23:15:10.610Z,75.79
2019-05-18T23:17:41.367Z,76.21
2019-05-18T23:20:12.619Z,76.63
2019-05-18T23:22:43.441Z,76.86
2019-05-18T23:25:14.319Z,76.44
2019-05-18T23:27:45.282Z,76.12
2019-05-18T23:30:17.581Z,76.28
2019-05-18T23:32:50.490Z,76.60
2019-05-18T23:35:20.968Z,76.64
2019-05-18T23:37:51.667Z,76.59
2019-05-18T23:40:23.017Z,76.72
2019-05-18T23:42:53.714Z,76.52
2019-05-18T23:45:24.508Z,76.37
2019-05-18T23:47:55.320Z,76.45
2019-05-18T23:50:26.142Z,76.69
2019-05-18T23:52:57.305Z,76.50
2019-05-18T23:55:28.028Z,76.32
2019-05-18T23:58:05.093Z,76.48
